Time;durP1;ratioP1;P1;durP2;ratioP2;P2;SDS_P1;SDS_P2;PMS_P1;PMS_P2;Temp;Humidity;BMP_temperature;BMP_pressure;BME280_temperature;BME280_humidity;BME280_pressure;Samples;Min_cycle;Max_cycle;Signal;HPM_P1;HPM_P2
2022/05/25 00:00:08;;;;;;;1.20;0.67;;;;;;;;;;5003051;28;20521;-64
2022/05/25 00:02:37;;;;;;;0.80;0.70;;;;;;;;;;4999687;28;20219;-64
2022/05/25 00:05:11;;;;;;;0.77;0.77;;;;;;;;;;5004544;28;20283;-65
2022/05/25 00:07:41;;;;;;;0.67;0.67;;;;;;;;;;5006249;28;20646;-65
2022/05/25 00:10:12;;;;;;;0.60;0.60;;;;;;;;;;5006228;28;20215;-65
2022/05/25 00:12:42;;;;;;;2.80;1.00;;;;;;;;;;4996212;28;20200;-65
2022/05/25 00:15:13;;;;;;;1.10;0.70;;;;;;;;;;5002966;28;20219;-65
2022/05/25 00:17:45;;;;;;;0.83;0.70;;;;;;;;;;4999328;28;20195;-65
2022/05/25 00:20:12;;;;;;;1.13;0.67;;;;;;;;;;5006553;28;20207;-65
2022/05/25 00:22:46;;;;;;;0.80;0.80;;;;;;;;;;5004300;28;20195;-65
2022/05/25 00:25:17;;;;;;;1.20;0.97;;;;;;;;;;5005238;28;20314;-65
2022/05/25 00:27:44;;;;;;;0.93;0.70;;;;;;;;;;5005931;28;20488;-65
2022/05/25 00:30:12;;;;;;;0.80;0.70;;;;;;;;;;5005569;28;20215;-65
2022/05/25 00:32:40;;;;;;;0.87;0.70;;;;;;;;;;5004579;28;20822;-65
2022/05/25 00:35:08;;;;;;;0.83;0.60;;;;;;;;;;5009341;28;20188;-65
2022/05/25 00:37:35;;;;;;;0.60;0.60;;;;;;;;;;5006677;28;20653;-65
2022/05/25 00:40:04;;;;;;;1.40;0.80;;;;;;;;;;5006784;28;20262;-65
2022/05/25 00:42:36;;;;;;;0.83;0.80;;;;;;;;;;5009561;28;20873;-65
2022/05/25 00:45:12;;;;;;;1.03;0.77;;;;;;;;;;5004019;28;20260;-65
2022/05/25 00:47:44;;;;;;;0.77;0.70;;;;;;;;;;5005870;28;20199;-65
2022/05/25 00:50:20;;;;;;;1.60;0.80;;;;;;;;;;5006114;28;20223;-65
2022/05/25 00:52:48;;;;;;;2.20;0.70;;;;;;;;;;5005407;28;20603;-64
2022/05/25 00:55:27;;;;;;;1.17;0.70;;;;;;;;;;5008784;28;20274;-65
2022/05/25 00:57:56;;;;;;;1.60;0.70;;;;;;;;;;5006278;28;20448;-65
2022/05/25 01:00:31;;;;;;;1.10;0.90;;;;;;;;;;5004057;28;20218;-65
2022/05/25 01:03:02;;;;;;;0.80;0.60;;;;;;;;;;5003716;28;20791;-65
2022/05/25 01:05:38;;;;;;;1.37;1.00;;;;;;;;;;5009479;28;20239;-65
2022/05/25 01:08:12;;;;;;;1.07;0.90;;;;;;;;;;5007814;28;20192;-65
2022/05/25 01:10:58;;;;;;;1.27;0.60;;;;;;;;;;5007508;28;20208;-64
2022/05/25 01:13:34;;;;;;;1.00;0.90;;;;;;;;;;5006728;28;20227;-65
2022/05/25 01:16:24;;;;;;;1.13;1.03;;;;;;;;;;5001658;28;20196;-65
2022/05/25 01:19:18;;;;;;;1.10;0.87;;;;;;;;;;5007399;28;20714;-65
2022/05/25 01:22:08;;;;;;;1.50;1.03;;;;;;;;;;5008437;28;20274;-65
2022/05/25 01:24:44;;;;;;;0.80;0.80;;;;;;;;;;5008232;28;20235;-64
2022/05/25 01:27:12;;;;;;;1.30;0.87;;;;;;;;;;5006380;28;20392;-65
2022/05/25 01:29:48;;;;;;;1.77;0.93;;;;;;;;;;5009853;28;20226;-65
2022/05/25 01:32:42;;;;;;;2.10;0.90;;;;;;;;;;5011022;28;20588;-64
2022/05/25 01:35:22;;;;;;;1.70;0.90;;;;;;;;;;5003757;28;20199;-65
2022/05/25 01:38:17;;;;;;;1.80;1.10;;;;;;;;;;5007683;28;20223;-64
2022/05/25 01:40:59;;;;;;;1.00;0.90;;;;;;;;;;5010301;28;20533;-65
2022/05/25 01:43:41;;;;;;;1.33;1.20;;;;;;;;;;5005363;28;20283;-64
2022/05/25 01:46:39;;;;;;;0.90;0.70;;;;;;;;;;5009617;28;20223;-64
2022/05/25 01:49:14;;;;;;;0.80;0.80;;;;;;;;;;5000405;28;20219;-65
2022/05/25 01:51:50;;;;;;;1.23;0.90;;;;;;;;;;5002303;28;20708;-65
2022/05/25 01:54:35;;;;;;;1.33;0.97;;;;;;;;;;5002046;28;20305;-64
2022/05/25 01:57:09;;;;;;;2.70;1.07;;;;;;;;;;4998864;28;20235;-64
2022/05/25 01:59:40;;;;;;;0.80;0.80;;;;;;;;;;5009155;28;20212;-64
2022/05/25 02:05:07;;;;;;;2.70;0.97;;;;;;;;;;5021348;28;20210;-64
2022/05/25 02:08:11;;;;;;;1.17;0.90;;;;;;;;;;5001558;28;20192;-64
2022/05/25 02:10:47;;;;;;;1.63;0.83;;;;;;;;;;5002498;28;20195;-64
2022/05/25 02:13:44;;;;;;;1.40;0.80;;;;;;;;;;5008582;28;20302;-64
2022/05/25 02:16:32;;;;;;;0.80;0.80;;;;;;;;;;5004789;28;20234;-64
2022/05/25 02:19:10;;;;;;;1.37;0.80;;;;;;;;;;5006548;28;20865;-64
2022/05/25 02:22:03;;;;;;;1.07;0.97;;;;;;;;;;5005783;28;20214;-64
2022/05/25 02:24:35;;;;;;;1.63;0.73;;;;;;;;;;5003669;28;20199;-64
2022/05/25 02:27:10;;;;;;;1.13;0.90;;;;;;;;;;5002821;28;20809;-64
2022/05/25 02:29:39;;;;;;;0.80;0.80;;;;;;;;;;5004730;28;20710;-64
2022/05/25 02:32:12;;;;;;;0.70;0.70;;;;;;;;;;5006726;28;20192;-64
2022/05/25 02:34:43;;;;;;;1.17;0.97;;;;;;;;;;5006952;28;20210;-64
2022/05/25 02:37:11;;;;;;;1.67;1.00;;;;;;;;;;5003391;28;20849;-65
2022/05/25 02:39:38;;;;;;;1.10;0.93;;;;;;;;;;5002132;28;20211;-64
2022/05/25 02:42:11;;;;;;;1.60;1.00;;;;;;;;;;5007434;28;20199;-64
2022/05/25 02:44:38;;;;;;;2.03;1.20;;;;;;;;;;4996221;28;20211;-64
2022/05/25 02:47:06;;;;;;;1.80;1.10;;;;;;;;;;5001209;28;20843;-65
2022/05/25 02:49:33;;;;;;;4.53;0.90;;;;;;;;;;4995050;28;20217;-64
2022/05/25 02:52:00;;;;;;;2.07;1.10;;;;;;;;;;5001484;28;20200;-64
2022/05/25 02:54:27;;;;;;;1.60;1.00;;;;;;;;;;5006896;28;21588;-64
2022/05/25 02:56:54;;;;;;;2.53;0.90;;;;;;;;;;4994809;28;20214;-64
2022/05/25 02:59:22;;;;;;;1.17;0.90;;;;;;;;;;5006473;28;20261;-64
2022/05/25 03:01:49;;;;;;;1.40;1.00;;;;;;;;;;4998635;28;20629;-64
2022/05/25 03:04:16;;;;;;;2.33;0.77;;;;;;;;;;5002808;28;20258;-65
2022/05/25 03:06:43;;;;;;;1.23;0.90;;;;;;;;;;5000875;28;20573;-64
2022/05/25 03:09:10;;;;;;;2.40;0.90;;;;;;;;;;5004445;28;20196;-64
2022/05/25 03:11:43;;;;;;;1.27;1.13;;;;;;;;;;5006515;28;20680;-64
2022/05/25 03:14:10;;;;;;;1.13;1.03;;;;;;;;;;5004643;28;20521;-64
2022/05/25 03:16:38;;;;;;;2.67;1.17;;;;;;;;;;5001949;28;20211;-64
2022/05/25 03:19:06;;;;;;;1.70;1.10;;;;;;;;;;5004941;28;20203;-64
2022/05/25 03:21:34;;;;;;;1.17;0.60;;;;;;;;;;5004234;28;20274;-64
2022/05/25 03:24:01;;;;;;;0.90;0.80;;;;;;;;;;5003456;28;20270;-64
2022/05/25 03:26:28;;;;;;;0.90;0.90;;;;;;;;;;4998666;28;20278;-64
2022/05/25 03:28:56;;;;;;;1.07;0.90;;;;;;;;;;5001924;28;21636;-65
2022/05/25 03:31:23;;;;;;;1.00;0.90;;;;;;;;;;5003635;28;20243;-64
2022/05/25 03:33:51;;;;;;;1.83;0.87;;;;;;;;;;5006586;28;20648;-65
2022/05/25 03:36:18;;;;;;;1.43;1.00;;;;;;;;;;4999535;28;20192;-65
2022/05/25 03:38:45;;;;;;;1.53;0.90;;;;;;;;;;4995001;28;20662;-65
2022/05/25 03:41:12;;;;;;;1.50;0.87;;;;;;;;;;5004893;28;20590;-65
2022/05/25 03:43:39;;;;;;;1.50;0.90;;;;;;;;;;5001004;28;20215;-64
2022/05/25 03:46:06;;;;;;;1.37;0.90;;;;;;;;;;5003802;28;20255;-64
2022/05/25 03:48:34;;;;;;;1.97;0.63;;;;;;;;;;5005736;28;20385;-64
2022/05/25 03:51:01;;;;;;;5.53;1.13;;;;;;;;;;4995639;28;20313;-64
2022/05/25 03:53:28;;;;;;;1.50;1.10;;;;;;;;;;5005651;28;20262;-64
2022/05/25 03:55:56;;;;;;;1.33;1.07;;;;;;;;;;5001823;28;20748;-64
2022/05/25 03:58:23;;;;;;;1.50;1.00;;;;;;;;;;5006101;28;20239;-64
2022/05/25 04:00:50;;;;;;;1.30;1.00;;;;;;;;;;5000356;28;20269;-64
2022/05/25 04:03:21;;;;;;;3.57;1.07;;;;;;;;;;5001201;28;20231;-64
2022/05/25 04:05:52;;;;;;;1.00;0.90;;;;;;;;;;5000102;28;20219;-65
2022/05/25 04:08:24;;;;;;;1.20;0.80;;;;;;;;;;5009237;28;20659;-65
2022/05/25 04:10:54;;;;;;;3.10;0.90;;;;;;;;;;5002166;28;20247;-65
2022/05/25 04:13:22;;;;;;;1.77;1.00;;;;;;;;;;5002427;28;20290;-65
2022/05/25 04:15:49;;;;;;;1.87;1.00;;;;;;;;;;5007921;28;20210;-64
2022/05/25 04:18:17;;;;;;;1.53;0.80;;;;;;;;;;5008362;28;20200;-65
2022/05/25 04:20:44;;;;;;;1.47;1.00;;;;;;;;;;5002257;28;20197;-64
2022/05/25 04:23:12;;;;;;;1.57;0.90;;;;;;;;;;5007584;28;20341;-65
2022/05/25 04:25:40;;;;;;;1.30;1.10;;;;;;;;;;4996756;28;20674;-64
2022/05/25 04:28:08;;;;;;;0.83;0.83;;;;;;;;;;5003161;28;20211;-64
2022/05/25 04:30:35;;;;;;;2.17;1.20;;;;;;;;;;5005892;28;20212;-65
2022/05/25 04:33:02;;;;;;;2.60;1.10;;;;;;;;;;5004860;28;20196;-65
2022/05/25 04:35:29;;;;;;;1.37;1.10;;;;;;;;;;5006901;28;20644;-64
2022/05/25 04:37:57;;;;;;;2.23;0.80;;;;;;;;;;5006971;28;20224;-65
2022/05/25 04:40:25;;;;;;;1.73;0.83;;;;;;;;;;5009082;28;20204;-64
2022/05/25 04:42:53;;;;;;;4.87;1.30;;;;;;;;;;5007521;28;20207;-64
2022/05/25 04:45:21;;;;;;;18.17;4.47;;;;;;;;;;5005616;28;20215;-65
2022/05/25 04:47:48;;;;;;;28.00;7.47;;;;;;;;;;5004923;28;20219;-64
2022/05/25 04:50:17;;;;;;;45.77;10.03;;;;;;;;;;5005755;28;20783;-64
2022/05/25 04:52:45;;;;;;;37.23;8.70;;;;;;;;;;5001497;28;20277;-64
2022/05/25 04:57:19;;;;;;;27.27;7.80;;;;;;;;;;5009565;28;20819;-64
2022/05/25 04:58:00;;;;;;;28.97;7.00;;;;;;;;;;5008507;28;20231;-64
2022/05/25 05:00:28;;;;;;;19.00;6.07;;;;;;;;;;5007708;28;20524;-65
2022/05/25 05:02:55;;;;;;;24.93;7.70;;;;;;;;;;5002687;28;20278;-65
2022/05/25 05:05:25;;;;;;;18.80;6.50;;;;;;;;;;5007143;28;20204;-64
2022/05/25 05:07:52;;;;;;;11.47;4.90;;;;;;;;;;5006506;28;20547;-64
2022/05/25 05:10:29;;;;;;;22.00;6.87;;;;;;;;;;5009452;28;20214;-65
2022/05/25 05:13:04;;;;;;;23.90;7.07;;;;;;;;;;5003265;28;20192;-65
2022/05/25 05:15:39;;;;;;;41.20;10.97;;;;;;;;;;5007999;28;20250;-64
2022/05/25 05:18:08;;;;;;;30.43;9.27;;;;;;;;;;5007333;28;20192;-64
2022/05/25 05:20:40;;;;;;;47.33;13.53;;;;;;;;;;5009109;28;20203;-64
2022/05/25 05:23:15;;;;;;;39.13;11.00;;;;;;;;;;5007831;28;20203;-65
2022/05/25 05:25:44;;;;;;;27.03;8.23;;;;;;;;;;5006651;28;20219;-65
2022/05/25 05:28:18;;;;;;;21.30;6.97;;;;;;;;;;5005717;28;20196;-64
2022/05/25 05:30:53;;;;;;;14.20;6.00;;;;;;;;;;5005827;28;20219;-64
2022/05/25 05:33:26;;;;;;;15.40;5.07;;;;;;;;;;5008086;28;20208;-64
2022/05/25 05:36:06;;;;;;;9.23;4.10;;;;;;;;;;5006290;28;20247;-64
2022/05/25 05:38:36;;;;;;;10.17;3.53;;;;;;;;;;5004872;28;20200;-65
2022/05/25 05:41:03;;;;;;;9.07;3.53;;;;;;;;;;5002288;28;20204;-64
2022/05/25 05:43:31;;;;;;;11.70;3.40;;;;;;;;;;5000937;28;20207;-63
2022/05/25 05:46:00;;;;;;;9.27;2.70;;;;;;;;;;5007783;28;20272;-64
2022/05/25 05:48:31;;;;;;;8.23;2.70;;;;;;;;;;5005051;28;21082;-64
2022/05/25 05:51:18;;;;;;;10.67;2.53;;;;;;;;;;5005041;28;20315;-64
2022/05/25 05:53:48;;;;;;;7.03;2.60;;;;;;;;;;5005377;28;20197;-63
2022/05/25 05:56:20;;;;;;;5.20;2.30;;;;;;;;;;5003971;28;20180;-64
2022/05/25 05:58:54;;;;;;;5.67;2.13;;;;;;;;;;5003469;28;20846;-64
2022/05/25 06:01:36;;;;;;;4.73;1.83;;;;;;;;;;5004188;28;20265;-63
2022/05/25 06:04:04;;;;;;;6.40;2.10;;;;;;;;;;5006714;28;20220;-64
2022/05/25 06:06:33;;;;;;;4.40;2.10;;;;;;;;;;5006476;28;20208;-65
2022/05/25 06:09:03;;;;;;;3.60;2.07;;;;;;;;;;5002460;28;20193;-63
2022/05/25 06:11:40;;;;;;;4.77;2.23;;;;;;;;;;5007055;28;20256;-64
2022/05/25 06:14:09;;;;;;;6.77;2.53;;;;;;;;;;5003196;28;20207;-64
2022/05/25 06:19:33;;;;;;;7.20;2.03;;;;;;;;;;5011009;28;20207;-67
2022/05/25 06:22:15;;;;;;;5.37;1.93;;;;;;;;;;5008439;28;20218;-65
2022/05/25 06:24:58;;;;;;;4.47;1.70;;;;;;;;;;4999166;28;20258;-65
2022/05/25 06:27:29;;;;;;;5.83;1.73;;;;;;;;;;5003776;28;20214;-65
2022/05/25 06:30:01;;;;;;;3.83;1.50;;;;;;;;;;5008091;28;20246;-65
2022/05/25 06:32:32;;;;;;;3.50;1.63;;;;;;;;;;5006664;28;20211;-64
2022/05/25 06:35:04;;;;;;;6.07;1.60;;;;;;;;;;4981221;28;20200;-66
2022/05/25 06:37:36;;;;;;;3.30;1.53;;;;;;;;;;4997093;28;20227;-65
2022/05/25 06:40:06;;;;;;;3.30;1.37;;;;;;;;;;5006475;28;20192;-64
2022/05/25 06:42:36;;;;;;;4.30;1.60;;;;;;;;;;4996322;28;20212;-64
2022/05/25 06:45:04;;;;;;;2.07;1.17;;;;;;;;;;5003726;28;20231;-65
2022/05/25 06:47:32;;;;;;;3.07;1.33;;;;;;;;;;5005474;28;20192;-65
2022/05/25 06:49:59;;;;;;;4.20;1.77;;;;;;;;;;5002686;28;20219;-64
2022/05/25 06:52:26;;;;;;;4.80;2.13;;;;;;;;;;5005051;28;20696;-64
2022/05/25 06:54:54;;;;;;;3.93;1.57;;;;;;;;;;5001246;28;20211;-63
2022/05/25 06:57:21;;;;;;;2.57;1.60;;;;;;;;;;5003792;28;20247;-63
2022/05/25 06:59:48;;;;;;;8.67;2.00;;;;;;;;;;5006952;28;20206;-65
2022/05/25 07:02:16;;;;;;;3.23;1.50;;;;;;;;;;5000501;28;20263;-64
2022/05/25 07:04:43;;;;;;;2.63;1.30;;;;;;;;;;5005026;28;20222;-66
2022/05/25 07:07:10;;;;;;;3.10;1.70;;;;;;;;;;5003200;28;20196;-66
2022/05/25 07:09:39;;;;;;;3.53;1.50;;;;;;;;;;5005703;28;20200;-67
2022/05/25 07:12:07;;;;;;;5.57;1.47;;;;;;;;;;5002029;28;20226;-68
2022/05/25 07:14:35;;;;;;;3.60;1.40;;;;;;;;;;5003693;28;20208;-68
2022/05/25 07:17:03;;;;;;;3.67;1.57;;;;;;;;;;4987021;28;20222;-70
2022/05/25 07:19:30;;;;;;;2.10;1.37;;;;;;;;;;4999083;28;20247;-69
2022/05/25 07:21:58;;;;;;;5.43;1.70;;;;;;;;;;4997454;28;20211;-69
2022/05/25 07:24:25;;;;;;;5.07;1.57;;;;;;;;;;5003308;28;20200;-68
2022/05/25 07:26:52;;;;;;;2.73;1.53;;;;;;;;;;4991104;28;20661;-67
2022/05/25 07:29:19;;;;;;;2.90;1.47;;;;;;;;;;5002396;28;20657;-66
2022/05/25 07:31:50;;;;;;;2.97;1.50;;;;;;;;;;5006775;28;20219;-65
2022/05/25 07:34:25;;;;;;;3.57;1.50;;;;;;;;;;5002855;28;20224;-65
2022/05/25 07:36:54;;;;;;;3.73;1.53;;;;;;;;;;5001129;28;20191;-66
2022/05/25 07:39:24;;;;;;;3.67;1.53;;;;;;;;;;5004917;28;20195;-66
2022/05/25 07:41:53;;;;;;;3.83;1.53;;;;;;;;;;5003005;28;20584;-66
2022/05/25 07:44:29;;;;;;;2.90;1.37;;;;;;;;;;5002778;28;20258;-65
2022/05/25 07:46:56;;;;;;;5.00;1.63;;;;;;;;;;5000173;28;20206;-68
2022/05/25 07:49:23;;;;;;;2.87;1.30;;;;;;;;;;4999466;28;20247;-66
2022/05/25 07:51:52;;;;;;;3.87;1.70;;;;;;;;;;5001465;28;20219;-66
2022/05/25 07:54:20;;;;;;;2.70;1.50;;;;;;;;;;5006024;28;20227;-66
2022/05/25 07:56:48;;;;;;;4.00;1.57;;;;;;;;;;5001716;28;20188;-67
2022/05/25 07:59:22;;;;;;;4.83;1.30;;;;;;;;;;5005426;28;20238;-67
2022/05/25 08:07:36;;;;;;;2.97;1.20;;;;;;;;;;4989243;28;20211;-68
2022/05/25 08:10:07;;;;;;;7.40;1.73;;;;;;;;;;4999259;28;20688;-67
2022/05/25 08:12:35;;;;;;;2.57;1.27;;;;;;;;;;5000676;28;20215;-69
2022/05/25 08:15:07;;;;;;;5.47;1.60;;;;;;;;;;4994634;28;21004;-65
2022/05/25 08:17:34;;;;;;;4.47;1.50;;;;;;;;;;5003545;28;20199;-66
2022/05/25 08:20:01;;;;;;;2.40;1.50;;;;;;;;;;5001475;28;20199;-68
2022/05/25 08:22:29;;;;;;;3.10;1.40;;;;;;;;;;5005674;28;20258;-70
2022/05/25 08:24:56;;;;;;;3.23;1.40;;;;;;;;;;4989395;28;20208;-68
2022/05/25 08:27:24;;;;;;;2.53;1.43;;;;;;;;;;4998944;28;20216;-66
2022/05/25 08:29:51;;;;;;;3.77;1.43;;;;;;;;;;5000552;28;20216;-66
2022/05/25 08:32:19;;;;;;;4.87;1.13;;;;;;;;;;5005878;28;20220;-69
2022/05/25 08:34:46;;;;;;;2.40;1.27;;;;;;;;;;5002825;28;20533;-72
2022/05/25 08:37:13;;;;;;;3.13;1.47;;;;;;;;;;5004882;28;20215;-72
2022/05/25 08:39:40;;;;;;;1.90;1.20;;;;;;;;;;5006499;28;20188;-68
2022/05/25 08:42:13;;;;;;;3.83;1.30;;;;;;;;;;5006603;28;20191;-68
2022/05/25 08:44:41;;;;;;;2.67;1.43;;;;;;;;;;5004444;28;20203;-72
2022/05/25 08:47:12;;;;;;;1.97;1.20;;;;;;;;;;5002363;28;20611;-67
2022/05/25 08:49:47;;;;;;;2.33;1.20;;;;;;;;;;4998608;28;20546;-67
2022/05/25 08:52:47;;;;;;;2.70;1.10;;;;;;;;;;5001421;28;20214;-65
2022/05/25 08:55:23;;;;;;;2.27;1.47;;;;;;;;;;5001308;28;20216;-68
2022/05/25 08:57:54;;;;;;;2.33;1.33;;;;;;;;;;5008103;28;20305;-67
2022/05/25 09:00:23;;;;;;;3.10;1.55;;;;;;;;;;5008627;28;20417;-61
2022/05/25 09:02:54;;;;;;;4.63;1.30;;;;;;;;;;5004554;28;20212;-63
2022/05/25 09:05:26;;;;;;;2.73;1.40;;;;;;;;;;5008562;28;20586;-63
2022/05/25 09:08:24;;;;;;;5.03;1.40;;;;;;;;;;5008466;28;20219;-63
2022/05/25 09:10:58;;;;;;;4.90;1.40;;;;;;;;;;5005450;28;20207;-62
2022/05/25 09:13:49;;;;;;;2.60;1.13;;;;;;;;;;5002027;28;20215;-64
2022/05/25 09:16:31;;;;;;;2.80;1.20;;;;;;;;;;5001085;28;20204;-64
2022/05/25 09:19:17;;;;;;;3.27;1.47;;;;;;;;;;5001773;28;20649;-63
2022/05/25 09:21:54;;;;;;;4.27;1.37;;;;;;;;;;5008186;28;20205;-63
2022/05/25 09:24:27;;;;;;;3.77;1.20;;;;;;;;;;5005793;28;20192;-63
2022/05/25 09:26:59;;;;;;;6.67;1.07;;;;;;;;;;4986484;28;20212;-63
2022/05/25 09:29:26;;;;;;;4.67;1.37;;;;;;;;;;5005107;28;20214;-63
2022/05/25 09:31:53;;;;;;;3.07;1.23;;;;;;;;;;5006145;28;20302;-64
2022/05/25 09:34:39;;;;;;;2.87;1.30;;;;;;;;;;5003150;28;20200;-63
2022/05/25 09:37:23;;;;;;;4.70;1.20;;;;;;;;;;5002949;28;20199;-63
2022/05/25 09:39:52;;;;;;;5.03;1.17;;;;;;;;;;5001257;28;20231;-63
2022/05/25 09:42:21;;;;;;;3.70;1.20;;;;;;;;;;5005731;28;20204;-63
2022/05/25 09:44:56;;;;;;;2.70;1.10;;;;;;;;;;5002279;28;20203;-64
2022/05/25 09:47:25;;;;;;;5.23;1.20;;;;;;;;;;5007640;28;20192;-64
2022/05/25 09:49:54;;;;;;;2.10;1.00;;;;;;;;;;5002169;28;20216;-64
2022/05/25 09:52:24;;;;;;;2.67;0.90;;;;;;;;;;5008479;28;20219;-64
2022/05/25 09:55:01;;;;;;;2.00;1.00;;;;;;;;;;5003447;28;20610;-64
2022/05/25 09:57:38;;;;;;;3.50;1.30;;;;;;;;;;5002606;28;20760;-63
2022/05/25 10:00:22;;;;;;;2.03;0.97;;;;;;;;;;5002749;28;20199;-63
2022/05/25 10:02:53;;;;;;;4.17;1.10;;;;;;;;;;4999142;28;20215;-64
2022/05/25 10:05:24;;;;;;;2.07;0.93;;;;;;;;;;5007679;28;20203;-64
2022/05/25 10:07:53;;;;;;;1.60;0.83;;;;;;;;;;5006996;28;20200;-64
2022/05/25 10:10:26;;;;;;;1.33;0.80;;;;;;;;;;5003597;28;20211;-63
2022/05/25 10:13:01;;;;;;;0.90;0.70;;;;;;;;;;5001939;28;20603;-63
2022/05/25 10:15:35;;;;;;;1.97;0.93;;;;;;;;;;5003141;28;20199;-63
2022/05/25 10:18:03;;;;;;;2.67;1.23;;;;;;;;;;4996010;28;20219;-64
2022/05/25 10:20:30;;;;;;;0.87;0.70;;;;;;;;;;5004662;28;20206;-64
2022/05/25 10:23:01;;;;;;;1.67;0.60;;;;;;;;;;5002490;28;20229;-64
2022/05/25 10:25:28;;;;;;;2.00;0.77;;;;;;;;;;5002007;28;20239;-63
2022/05/25 10:27:57;;;;;;;2.00;0.60;;;;;;;;;;5007508;28;20254;-63
2022/05/25 10:39:30;;;;;;;3.40;0.80;;;;;;;;;;5002468;28;20279;-63
2022/05/25 10:42:15;;;;;;;0.97;0.63;;;;;;;;;;5002759;28;20266;-63
2022/05/25 10:44:43;;;;;;;3.27;0.77;;;;;;;;;;5003720;28;20211;-63
2022/05/25 10:47:17;;;;;;;1.77;0.87;;;;;;;;;;5005288;28;20702;-63
2022/05/25 10:49:44;;;;;;;1.83;0.80;;;;;;;;;;4999872;28;20650;-62
2022/05/25 10:52:31;;;;;;;1.63;0.73;;;;;;;;;;5006185;28;20281;-63
2022/05/25 10:54:59;;;;;;;2.23;0.87;;;;;;;;;;5003862;28;20250;-63
2022/05/25 10:57:44;;;;;;;2.00;0.60;;;;;;;;;;5006485;28;20732;-63
2022/05/25 11:00:14;;;;;;;1.50;0.70;;;;;;;;;;5002746;28;20196;-63
2022/05/25 11:02:50;;;;;;;2.17;0.70;;;;;;;;;;5004883;28;20227;-63
2022/05/25 11:05:24;;;;;;;1.60;0.70;;;;;;;;;;5004336;28;20203;-64
2022/05/25 11:07:55;;;;;;;2.47;0.90;;;;;;;;;;5005457;28;20209;-63
2022/05/25 11:10:34;;;;;;;1.33;0.83;;;;;;;;;;5005071;28;20208;-62
2022/05/25 11:13:11;;;;;;;2.27;0.60;;;;;;;;;;4999940;28;20608;-63
2022/05/25 11:15:57;;;;;;;1.43;0.83;;;;;;;;;;5004291;28;20192;-63
2022/05/25 11:18:32;;;;;;;1.40;0.60;;;;;;;;;;5004478;28;20661;-62
2022/05/25 11:21:06;;;;;;;2.23;0.90;;;;;;;;;;5001332;28;20196;-62
2022/05/25 11:24:08;;;;;;;0.83;0.80;;;;;;;;;;5006464;28;20269;-63
2022/05/25 11:26:50;;;;;;;0.97;0.50;;;;;;;;;;4981963;28;20219;-62
2022/05/25 11:29:39;;;;;;;1.40;0.60;;;;;;;;;;5005520;28;20204;-62
2022/05/25 11:32:09;;;;;;;4.50;0.90;;;;;;;;;;5006647;28;20215;-63
2022/05/25 11:34:41;;;;;;;2.33;0.90;;;;;;;;;;4994224;28;20579;-63
2022/05/25 11:37:14;;;;;;;3.53;0.90;;;;;;;;;;4995818;28;20222;-62
2022/05/25 11:40:01;;;;;;;3.00;0.70;;;;;;;;;;4999363;28;20238;-62
2022/05/25 11:42:49;;;;;;;3.37;0.83;;;;;;;;;;4997157;28;20232;-62
2022/05/25 11:45:35;;;;;;;1.70;0.77;;;;;;;;;;4998314;28;20915;-62
2022/05/25 11:48:34;;;;;;;1.93;0.70;;;;;;;;;;5005937;28;20191;-62
2022/05/25 11:51:18;;;;;;;2.03;0.97;;;;;;;;;;4999947;28;20523;-63
2022/05/25 11:54:04;;;;;;;1.00;0.60;;;;;;;;;;5004252;28;20223;-63
2022/05/25 11:56:31;;;;;;;1.70;0.50;;;;;;;;;;5000489;28;20211;-62
2022/05/25 11:59:17;;;;;;;1.40;0.70;;;;;;;;;;5002860;28;21128;-62
2022/05/25 12:01:44;;;;;;;3.03;0.70;;;;;;;;;;4996318;28;20728;-62
2022/05/25 12:04:34;;;;;;;1.10;0.80;;;;;;;;;;5005083;28;20498;-62
2022/05/25 12:07:16;;;;;;;0.70;0.60;;;;;;;;;;5000127;28;20211;-62
2022/05/25 12:09:56;;;;;;;1.40;0.70;;;;;;;;;;5005568;28;20196;-62
2022/05/25 12:12:42;;;;;;;1.77;0.50;;;;;;;;;;5004394;28;20212;-62
2022/05/25 12:15:30;;;;;;;1.10;0.87;;;;;;;;;;4999886;28;20227;-62
2022/05/25 12:18:23;;;;;;;1.90;0.60;;;;;;;;;;5000477;28;20675;-63
2022/05/25 12:21:09;;;;;;;2.17;0.90;;;;;;;;;;4996194;28;20249;-62
2022/05/25 12:23:41;;;;;;;1.47;0.57;;;;;;;;;;5005114;28;20629;-62
2022/05/25 12:26:18;;;;;;;1.80;0.70;;;;;;;;;;4974058;28;20307;-63
2022/05/25 12:28:50;;;;;;;1.90;0.90;;;;;;;;;;5001504;28;20226;-62
2022/05/25 12:31:29;;;;;;;2.27;0.80;;;;;;;;;;5006620;28;20212;-63
2022/05/25 12:34:02;;;;;;;1.37;0.60;;;;;;;;;;5009169;28;20207;-62
2022/05/25 12:36:34;;;;;;;1.63;0.73;;;;;;;;;;5004349;28;20208;-63
2022/05/25 12:39:03;;;;;;;1.40;0.57;;;;;;;;;;5003622;28;20278;-63
2022/05/25 12:41:41;;;;;;;2.10;0.80;;;;;;;;;;5008901;28;20215;-64
2022/05/25 12:50:38;;;;;;;1.50;0.60;;;;;;;;;;5005673;28;20207;-63
2022/05/25 12:53:28;;;;;;;3.13;0.80;;;;;;;;;;5007438;28;20609;-64
2022/05/25 12:56:19;;;;;;;1.03;0.50;;;;;;;;;;5003727;28;20860;-63
2022/05/25 12:58:50;;;;;;;2.40;0.80;;;;;;;;;;5004598;28;20794;-63
2022/05/25 13:01:23;;;;;;;1.27;0.67;;;;;;;;;;5002445;28;20262;-63
2022/05/25 13:03:58;;;;;;;1.00;0.70;;;;;;;;;;5007811;28;20234;-63
2022/05/25 13:06:42;;;;;;;1.93;0.80;;;;;;;;;;4998766;28;20744;-63
2022/05/25 13:09:34;;;;;;;1.23;0.80;;;;;;;;;;5005381;28;20677;-63
2022/05/25 13:12:24;;;;;;;1.53;0.50;;;;;;;;;;5007132;28;20192;-64
2022/05/25 13:14:54;;;;;;;1.20;0.80;;;;;;;;;;4998166;28;20441;-63
2022/05/25 13:17:43;;;;;;;2.77;0.97;;;;;;;;;;5004788;28;20188;-63
2022/05/25 13:20:15;;;;;;;2.97;0.70;;;;;;;;;;5004880;28;20285;-64
2022/05/25 13:22:45;;;;;;;2.30;0.80;;;;;;;;;;5000400;28;20206;-64
2022/05/25 13:25:23;;;;;;;1.27;0.73;;;;;;;;;;4998035;28;20243;-63
2022/05/25 13:27:53;;;;;;;1.33;0.60;;;;;;;;;;5006375;28;20620;-63
2022/05/25 13:30:27;;;;;;;3.00;0.70;;;;;;;;;;5007457;28;20188;-63
2022/05/25 13:32:56;;;;;;;1.40;0.80;;;;;;;;;;5003698;28;20278;-63
2022/05/25 13:35:59;;;;;;;4.33;0.93;;;;;;;;;;5006159;28;20218;-63
2022/05/25 13:38:26;;;;;;;1.30;0.60;;;;;;;;;;4980840;28;20208;-63
2022/05/25 13:40:59;;;;;;;1.63;0.83;;;;;;;;;;4982003;28;20266;-64
2022/05/25 13:43:38;;;;;;;3.90;0.80;;;;;;;;;;5005396;28;20207;-63
2022/05/25 13:46:09;;;;;;;1.50;0.70;;;;;;;;;;5006276;28;20199;-64
2022/05/25 13:48:37;;;;;;;1.50;0.60;;;;;;;;;;5006258;28;20200;-63
2022/05/25 13:51:04;;;;;;;1.20;0.63;;;;;;;;;;5001940;28;20216;-63
2022/05/25 13:53:33;;;;;;;1.20;0.70;;;;;;;;;;5001635;28;20278;-64
2022/05/25 13:56:13;;;;;;;3.87;1.13;;;;;;;;;;5002148;28;20758;-64
2022/05/25 13:58:45;;;;;;;2.80;0.60;;;;;;;;;;5001813;28;20293;-63
2022/05/25 14:01:14;;;;;;;3.67;0.70;;;;;;;;;;5002397;28;20222;-67
2022/05/25 14:03:47;;;;;;;2.07;1.07;;;;;;;;;;5002767;28;20208;-64
2022/05/25 14:06:15;;;;;;;0.67;0.60;;;;;;;;;;5005704;28;20286;-63
2022/05/25 14:11:33;;;;;;;2.60;0.93;;;;;;;;;;5003015;28;20200;-64
2022/05/25 14:14:01;;;;;;;0.80;0.53;;;;;;;;;;5002185;28;20583;-62
2022/05/25 14:16:30;;;;;;;1.60;0.80;;;;;;;;;;5005933;28;20199;-63
2022/05/25 14:19:05;;;;;;;2.40;0.80;;;;;;;;;;5000654;28;20200;-62
2022/05/25 14:21:40;;;;;;;1.23;0.83;;;;;;;;;;5006840;28;20203;-62
2022/05/25 14:24:14;;;;;;;1.57;0.87;;;;;;;;;;4995804;28;20203;-64
2022/05/25 14:26:49;;;;;;;3.67;0.53;;;;;;;;;;5001595;28;20211;-62
2022/05/25 14:29:21;;;;;;;4.57;0.70;;;;;;;;;;4997948;28;20222;-63
2022/05/25 14:32:22;;;;;;;1.93;1.00;;;;;;;;;;5003612;28;20265;-64
2022/05/25 14:34:52;;;;;;;2.53;0.90;;;;;;;;;;5004985;28;20210;-63
2022/05/25 14:37:27;;;;;;;1.37;0.70;;;;;;;;;;5002343;28;20224;-63
2022/05/25 14:40:00;;;;;;;1.67;0.87;;;;;;;;;;5006023;28;20203;-63
2022/05/25 14:42:31;;;;;;;2.07;0.90;;;;;;;;;;5001284;28;20195;-63
2022/05/25 14:45:07;;;;;;;3.87;0.93;;;;;;;;;;5002596;28;20217;-63
2022/05/25 14:47:46;;;;;;;2.20;0.80;;;;;;;;;;5004288;28;20195;-63
2022/05/25 14:50:29;;;;;;;1.23;0.73;;;;;;;;;;5003251;28;20204;-63
2022/05/25 14:53:15;;;;;;;2.63;0.93;;;;;;;;;;5000953;28;21537;-63
2022/05/25 14:56:06;;;;;;;1.40;0.80;;;;;;;;;;4985641;28;20207;-63
2022/05/25 14:58:44;;;;;;;4.03;0.97;;;;;;;;;;4998680;28;20318;-63
2022/05/25 15:01:13;;;;;;;2.70;0.90;;;;;;;;;;4997242;28;20212;-63
2022/05/25 15:04:06;;;;;;;1.43;0.60;;;;;;;;;;5001641;28;20304;-63
2022/05/25 15:06:43;;;;;;;2.73;0.97;;;;;;;;;;5004517;28;20272;-63
2022/05/25 15:09:12;;;;;;;3.10;0.80;;;;;;;;;;5005332;28;20199;-62
2022/05/25 15:11:44;;;;;;;3.37;0.70;;;;;;;;;;5006175;28;20226;-62
2022/05/25 15:20:09;;;;;;;4.33;1.00;;;;;;;;;;5005086;28;20253;-64
2022/05/25 15:22:37;;;;;;;4.03;0.70;;;;;;;;;;5003802;28;20207;-63
2022/05/25 15:25:39;;;;;;;2.10;1.00;;;;;;;;;;5001487;28;20207;-64
2022/05/25 15:28:12;;;;;;;3.53;1.40;;;;;;;;;;5005534;28;20200;-64
2022/05/25 15:30:44;;;;;;;2.80;1.10;;;;;;;;;;5006596;28;20255;-63
2022/05/25 15:33:15;;;;;;;2.73;0.90;;;;;;;;;;5005187;28;20222;-63
2022/05/25 15:35:42;;;;;;;1.20;0.73;;;;;;;;;;5006441;28;20192;-63
2022/05/25 15:38:11;;;;;;;4.63;0.87;;;;;;;;;;4999635;28;20211;-63
2022/05/25 15:40:42;;;;;;;3.13;0.80;;;;;;;;;;5002880;28;20191;-63
2022/05/25 15:43:13;;;;;;;4.40;1.00;;;;;;;;;;5000778;28;20550;-63
2022/05/25 15:45:47;;;;;;;2.53;1.10;;;;;;;;;;5003691;28;20238;-62
2022/05/25 15:48:16;;;;;;;3.53;0.87;;;;;;;;;;5001932;28;20267;-63
2022/05/25 15:50:49;;;;;;;3.37;1.13;;;;;;;;;;5001342;28;20660;-64
2022/05/25 15:53:16;;;;;;;2.60;1.17;;;;;;;;;;5004368;28;20222;-63
2022/05/25 15:55:49;;;;;;;1.73;0.97;;;;;;;;;;5002509;28;20195;-63